McAdoo, Texas
Current Conditions -  °F | °C
As of 7:53 PM on Monday 20 Oct 2014 (Local Time) from KLBB Reporting Station
Few Clouds Few Clouds  
Wind Chill: 65°   Ceiling: Unl
Heat Index: 65°   Visibility: 10mi
Dew Point: 53°   Wind: 8mph
Humidity: 65%   Direction: 150°SSE
Pressure: 30.08"   Gusts: NA
Location:  33.73°N, 101.01°W
Report Text: KLBB 210053Z 15007KT 10SM FEW270 18/12 A3008 RMK AO2 SLP159 CB DSNT NW MOV NW SLOW T01830117
Loading
Personal Weather Stations






























Interactive Weather Map
Tropical Storm Tracking
New forecast layout! Learn more

10-Day Weather Forecast

Advertisements
Track Severe Weather on mobile